Time;durP1;ratioP1;P1;durP2;ratioP2;P2;SDS_P1;SDS_P2;PMS_P1;PMS_P2;Temp;Humidity;BMP_temperature;BMP_pressure;BME280_temperature;BME280_humidity;BME280_pressure;Samples;Min_cycle;Max_cycle;Signal;HPM_P1;HPM_P2
2022/04/11 00:00:13;;;;;;;485.50;323.98;;;;;;;7.35;53.25;101473.28;688175;28;22205;-70
2022/04/11 00:00:35;;;;;;;487.27;334.25;;;;;;;7.32;53.29;101473.53;685505;28;92366;-70
2022/04/11 00:00:56;;;;;;;487.63;333.38;;;;;;;7.30;53.41;101476.38;688364;28;21558;-70
2022/04/11 00:01:17;;;;;;;488.63;335.23;;;;;;;7.29;53.53;101484.56;688830;28;22428;-70
2022/04/11 00:01:39;;;;;;;486.50;333.40;;;;;;;7.28;53.34;101477.50;687983;28;24711;-70
2022/04/11 00:02:00;;;;;;;487.80;335.20;;;;;;;7.22;53.36;101471.72;687513;28;44211;-69
2022/04/11 00:02:23;;;;;;;488.27;335.98;;;;;;;7.26;53.43;101479.47;688373;28;21579;-70
2022/04/11 00:02:44;;;;;;;485.13;326.65;;;;;;;7.26;53.45;101479.47;685900;28;90135;-70
2022/04/11 00:03:06;;;;;;;485.92;330.65;;;;;;;7.25;53.71;101472.41;688221;28;22386;-70
2022/04/11 00:03:28;;;;;;;486.33;331.70;;;;;;;7.25;53.53;101480.47;687932;28;44394;-70
2022/04/11 00:03:50;;;;;;;483.75;319.83;;;;;;;7.26;53.84;101482.16;688419;28;21542;-70
2022/04/11 00:04:11;;;;;;;485.83;329.45;;;;;;;7.26;53.76;101471.41;686017;28;4607;-70
2022/04/11 00:04:32;;;;;;;488.23;337.73;;;;;;;7.24;53.44;101476.94;682844;28;22415;-70
2022/04/11 00:04:54;;;;;;;487.13;333.25;;;;;;;7.24;53.58;101476.06;684022;28;23484;-70
2022/04/11 00:05:15;;;;;;;485.83;327.10;;;;;;;7.23;53.51;101475.25;683069;28;46321;-70
2022/04/11 00:05:36;;;;;;;484.85;327.35;;;;;;;7.24;53.68;101474.25;683365;28;46297;-70
2022/04/11 00:05:57;;;;;;;485.35;329.80;;;;;;;7.20;53.73;101462.91;684481;28;22264;-70
2022/04/11 00:06:19;;;;;;;486.15;332.42;;;;;;;7.23;53.32;101477.94;688210;28;21587;-69
2022/04/11 00:06:40;;;;;;;487.48;335.75;;;;;;;7.24;53.67;101476.94;686787;28;44426;-70
2022/04/11 00:07:02;;;;;;;487.25;338.13;;;;;;;7.27;53.45;101476.66;688568;28;23470;-70
2022/04/11 00:07:24;;;;;;;484.70;333.70;;;;;;;7.21;53.42;101470.00;688619;28;22310;-70
2022/04/11 00:07:45;;;;;;;484.60;331.75;;;;;;;7.21;53.53;101474.53;686740;28;68345;-69
2022/04/11 00:08:08;;;;;;;484.92;332.38;;;;;;;7.19;53.74;101472.00;688328;28;22387;-70
2022/04/11 00:08:29;;;;;;;487.25;335.25;;;;;;;7.19;53.71;101473.81;687850;28;45359;-70
2022/04/11 00:08:50;;;;;;;486.80;333.38;;;;;;;7.17;53.83;101471.25;688613;28;22365;-70
2022/04/11 00:09:11;;;;;;;486.50;331.02;;;;;;;7.17;54.06;101471.25;688586;28;21517;-70
2022/04/11 00:09:33;;;;;;;487.00;327.42;;;;;;;7.17;54.03;101475.78;688376;28;22395;-70
2022/04/11 00:09:54;;;;;;;490.40;338.05;;;;;;;7.13;53.69;101467.16;687204;28;44337;-70
2022/04/11 00:10:15;;;;;;;488.55;340.35;;;;;;;7.16;54.02;101468.69;689001;28;22400;-70
2022/04/11 00:10:36;;;;;;;487.67;330.73;;;;;;;7.20;53.69;101473.66;687854;28;46306;-70
2022/04/11 00:10:57;;;;;;;485.73;324.65;;;;;;;7.20;53.75;101472.81;689526;28;22393;-70
2022/04/11 00:11:19;;;;;;;486.77;334.88;;;;;;;7.20;54.01;101472.81;689424;28;21373;-70
2022/04/11 00:11:40;;;;;;;486.75;335.45;;;;;;;7.21;53.90;101475.38;687622;28;46256;-70
2022/04/11 00:12:02;;;;;;;487.33;336.58;;;;;;;7.22;53.71;101471.72;689389;28;22205;-70
2022/04/11 00:12:23;;;;;;;488.00;340.65;;;;;;;7.19;53.97;101468.44;688340;28;21376;-70
2022/04/11 00:12:45;;;;;;;487.05;337.58;;;;;;;7.15;53.71;101465.19;687778;28;46332;-70
2022/04/11 00:13:07;;;;;;;488.13;339.30;;;;;;;7.18;54.06;101472.13;687422;28;44030;-69
2022/04/11 00:13:28;;;;;;;486.92;334.38;;;;;;;7.17;53.95;101476.63;687355;28;44050;-69
2022/04/11 00:13:50;;;;;;;487.67;336.92;;;;;;;7.19;53.79;101474.66;688259;28;22406;-70
2022/04/11 00:14:12;;;;;;;487.75;335.98;;;;;;;7.15;53.93;101469.72;688165;28;21540;-70
2022/04/11 00:14:33;;;;;;;487.20;332.20;;;;;;;7.18;53.92;101472.13;687569;28;45225;-70
2022/04/11 00:14:54;;;;;;;486.83;335.90;;;;;;;7.16;53.87;101469.56;688122;28;23512;-69
2022/04/11 00:15:15;;;;;;;487.70;334.92;;;;;;;7.18;53.94;101477.50;687489;28;46306;-69
2022/04/11 00:15:39;;;;;;;486.52;330.10;;;;;;;7.16;54.19;101472.25;688339;28;22393;-70
2022/04/11 00:16:00;;;;;;;487.15;333.05;;;;;;;7.17;54.09;101475.78;686703;28;69410;-70
2022/04/11 00:16:21;;;;;;;485.58;330.23;;;;;;;7.15;54.00;101469.72;688303;28;22335;-70
2022/04/11 00:16:42;;;;;;;485.23;329.13;;;;;;;7.16;54.16;101476.75;687538;28;22259;-70
2022/04/11 00:17:03;;;;;;;487.38;334.40;;;;;;;7.16;54.02;101476.75;688156;28;24001;-70
2022/04/11 00:17:25;;;;;;;487.90;338.90;;;;;;;7.15;54.10;101469.72;688062;28;45164;-70
2022/04/11 00:17:46;;;;;;;486.27;335.55;;;;;;;7.15;54.22;101470.53;687421;28;46128;-70
2022/04/11 00:18:08;;;;;;;486.02;333.10;;;;;;;7.13;54.15;101467.16;688422;28;22395;-70
2022/04/11 00:18:29;;;;;;;486.65;332.55;;;;;;;7.16;54.06;101471.38;688430;28;23488;-70
2022/04/11 00:18:51;;;;;;;486.83;334.48;;;;;;;7.16;54.22;101469.56;688149;28;22616;-70
2022/04/11 00:19:13;;;;;;;486.88;330.33;;;;;;;7.16;54.06;101466.88;687002;28;69437;-69
2022/04/11 00:19:34;;;;;;;489.13;331.52;;;;;;;7.16;53.93;101472.25;688241;28;21486;-70
2022/04/11 00:19:55;;;;;;;490.35;334.20;;;;;;;7.13;54.03;101468.97;687857;28;22101;-70
2022/04/11 00:20:17;;;;;;;485.85;324.52;;;;;;;7.15;54.32;101469.72;687538;28;45292;-70
2022/04/11 00:20:38;;;;;;;484.60;322.63;;;;;;;7.15;54.35;101469.72;687350;28;46193;-70
2022/04/11 00:20:59;;;;;;;485.52;328.27;;;;;;;7.09;54.43;101465.72;688344;28;21499;-70
2022/04/11 00:21:20;;;;;;;487.35;336.58;;;;;;;7.17;54.03;101470.41;688683;28;16126;-70
2022/04/11 00:21:42;;;;;;;488.20;341.33;;;;;;;7.17;54.10;101473.94;687895;28;22407;-70
2022/04/11 00:22:04;;;;;;;486.83;340.55;;;;;;;7.15;54.06;101475.91;687489;28;44009;-70
2022/04/11 00:22:26;;;;;;;487.08;341.38;;;;;;;7.14;54.17;101473.38;687329;28;45294;-70
2022/04/11 00:22:47;;;;;;;486.73;338.40;;;;;;;7.14;54.27;101473.38;687434;28;46321;-70
2022/04/11 00:23:09;;;;;;;487.42;337.15;;;;;;;7.14;54.22;101476.06;688395;28;22416;-70
2022/04/11 00:23:30;;;;;;;488.90;336.02;;;;;;;7.13;54.15;101466.28;687387;28;45211;-69
2022/04/11 00:23:51;;;;;;;485.20;329.05;;;;;;;7.11;54.30;101470.97;688282;28;24336;-69
2022/04/11 00:24:12;;;;;;;485.92;325.50;;;;;;;7.13;54.21;101467.16;688535;28;23266;-69
2022/04/11 00:24:34;;;;;;;486.43;330.77;;;;;;;7.10;54.29;101475.50;688194;28;23530;-69
2022/04/11 00:24:55;;;;;;;485.90;334.13;;;;;;;7.12;54.37;101475.34;687594;28;46374;-70
2022/04/11 00:25:16;;;;;;;487.33;335.27;;;;;;;7.02;54.57;101462.75;688844;28;22478;-70
2022/04/11 00:25:38;;;;;;;487.85;334.27;;;;;;;7.08;54.59;101474.75;687956;28;46331;-70
2022/04/11 00:26:00;;;;;;;485.45;330.55;;;;;;;7.09;54.40;101465.72;689156;28;22561;-70
2022/04/11 00:26:21;;;;;;;486.20;328.08;;;;;;;7.10;54.39;101466.56;688081;28;46424;-69
2022/04/11 00:26:43;;;;;;;485.20;326.25;;;;;;;7.11;54.38;101474.47;687508;28;44392;-70
2022/04/11 00:27:04;;;;;;;484.80;322.00;;;;;;;7.09;54.30;101471.09;689229;28;23387;-70
2022/04/11 00:27:26;;;;;;;485.98;332.77;;;;;;;7.09;54.27;101476.47;687927;28;23477;-70
2022/04/11 00:27:47;;;;;;;487.88;336.40;;;;;;;7.08;54.43;101472.06;685664;28;39373;-70
2022/04/11 00:28:09;;;;;;;487.55;335.67;;;;;;;7.07;54.48;101472.19;685947;28;46306;-70
2022/04/11 00:28:31;;;;;;;487.88;337.88;;;;;;;7.07;54.58;101473.06;686370;28;22395;-69
2022/04/11 00:28:53;;;;;;;487.90;334.65;;;;;;;7.05;54.38;101469.66;685686;28;44117;-69
2022/04/11 00:29:14;;;;;;;486.42;330.90;;;;;;;7.06;54.67;101467.84;683152;28;46455;-70
2022/04/11 00:29:35;;;;;;;487.95;336.98;;;;;;;7.04;54.48;101478.72;685491;28;22402;-69
2022/04/11 00:29:57;;;;;;;488.67;336.30;;;;;;;7.07;54.72;101469.50;685953;28;23589;-70
2022/04/11 00:30:18;;;;;;;486.77;334.33;;;;;;;7.06;54.25;101470.53;681848;28;69456;-69
2022/04/11 00:30:39;;;;;;;485.73;332.88;;;;;;;7.02;54.67;101472.59;684037;28;22221;-70
2022/04/11 00:31:01;;;;;;;489.30;342.52;;;;;;;7.08;54.46;101473.91;682344;28;46336;-70
2022/04/11 00:31:26;;;;;;;487.00;338.02;;;;;;;7.07;54.73;101461.47;681416;28;1780;-70
2022/04/11 00:31:47;;;;;;;486.85;333.75;;;;;;;7.07;54.71;101469.50;680429;28;44355;-70
2022/04/11 00:32:08;;;;;;;487.45;339.40;;;;;;;7.09;54.45;101470.25;683701;28;23774;-70
2022/04/11 00:32:29;;;;;;;487.73;336.60;;;;;;;7.09;54.51;101468.41;686045;28;23312;-70
2022/04/11 00:32:51;;;;;;;485.80;332.40;;;;;;;7.09;54.34;101471.09;686412;28;23537;-70
2022/04/11 00:33:12;;;;;;;487.65;338.17;;;;;;;7.10;54.73;101475.50;687720;28;46272;-70
2022/04/11 00:33:33;;;;;;;485.52;330.23;;;;;;;7.09;54.62;101475.63;687161;28;23484;-70
2022/04/11 00:33:54;;;;;;;485.15;327.27;;;;;;;7.08;54.66;101474.75;684140;28;45147;-70
2022/04/11 00:34:15;;;;;;;486.60;329.17;;;;;;;7.08;54.53;101473.91;688145;28;23507;-70
2022/04/11 00:34:37;;;;;;;488.90;339.00;;;;;;;7.08;54.73;101477.44;688265;28;23469;-70
2022/04/11 00:34:59;;;;;;;488.65;339.92;;;;;;;7.09;54.57;101472.94;688847;28;1065;-70
2022/04/11 00:35:21;;;;;;;488.00;340.30;;;;;;;7.09;54.55;101471.09;689176;28;1448;-70
2022/04/11 00:35:46;;;;;;;485.88;338.38;;;;;;;7.07;54.65;101475.75;688699;28;14997;-70
2022/04/11 00:36:08;;;;;;;487.85;341.83;;;;;;;7.08;54.52;101472.06;686904;28;46333;-70
2022/04/11 00:36:29;;;;;;;485.58;335.15;;;;;;;7.06;54.57;101473.22;684479;28;44189;-70
2022/04/11 00:36:50;;;;;;;483.27;330.70;;;;;;;7.06;54.85;101482.09;684481;28;22388;-69
2022/04/11 00:37:11;;;;;;;485.15;332.67;;;;;;;7.04;54.81;101474.19;681566;28;45227;-70
2022/04/11 00:37:34;;;;;;;486.92;335.33;;;;;;;7.04;54.67;101474.19;682795;28;22406;-70
2022/04/11 00:37:56;;;;;;;488.35;336.75;;;;;;;7.05;54.72;101472.34;680435;28;46263;-70
2022/04/11 00:38:17;;;;;;;488.50;340.08;;;;;;;7.06;54.79;101479.41;683207;28;44436;-70
2022/04/11 00:38:38;;;;;;;487.85;339.13;;;;;;;7.06;54.53;101479.41;683800;28;22326;-69
2022/04/11 00:38:59;;;;;;;487.00;338.08;;;;;;;7.04;54.76;101476.88;684041;28;22918;-69
2022/04/11 00:39:21;;;;;;;489.17;343.42;;;;;;;7.04;54.62;101486.78;685861;28;46342;-69
2022/04/11 00:39:43;;;;;;;491.77;340.17;;;;;;;7.03;54.75;101477.84;680780;28;67493;-69
2022/04/11 00:40:05;;;;;;;488.58;338.60;;;;;;;7.05;54.79;101483.09;680265;28;23521;-69
2022/04/11 00:40:26;;;;;;;486.80;331.63;;;;;;;7.03;54.67;101475.16;682207;28;46398;-70
2022/04/11 00:40:48;;;;;;;486.58;333.60;;;;;;;7.03;54.81;101474.31;682142;28;23055;-69
2022/04/11 00:41:10;;;;;;;486.85;337.13;;;;;;;7.03;54.99;101483.22;681947;28;45248;-70
2022/04/11 00:41:31;;;;;;;487.95;338.67;;;;;;;7.03;54.65;101480.53;683489;28;23415;-70
2022/04/11 00:41:52;;;;;;;486.70;334.40;;;;;;;7.03;54.88;101479.69;684509;28;46309;-70
2022/04/11 00:42:15;;;;;;;487.20;333.83;;;;;;;7.03;54.88;101477.84;689381;28;22415;-69
2022/04/11 00:42:37;;;;;;;488.17;335.17;;;;;;;7.02;54.92;101486.91;689199;28;46998;-70
2022/04/11 00:42:58;;;;;;;484.55;324.65;;;;;;;7.00;54.81;101480.81;689151;28;68389;-70
2022/04/11 00:43:32;;;;;;;484.08;320.05;;;;;;;7.03;54.82;101479.69;690076;28;22390;-70
2022/04/11 00:43:54;;;;;;;487.92;336.00;;;;;;;7.01;55.10;101474.44;684520;28;137338;-70
2022/04/11 00:44:15;;;;;;;488.67;338.13;;;;;;;7.02;54.96;101478.84;687266;28;46823;-70
2022/04/11 00:44:36;;;;;;;487.13;331.88;;;;;;;7.01;54.90;101474.44;688436;28;21528;-70
2022/04/11 00:44:59;;;;;;;486.65;338.02;;;;;;;7.03;54.86;101485.91;688027;28;23461;-70
2022/04/11 00:45:21;;;;;;;488.08;337.42;;;;;;;7.01;54.76;101473.63;686665;28;69479;-69
2022/04/11 00:45:43;;;;;;;486.67;331.98;;;;;;;7.03;54.75;101477.84;681848;28;66320;-70
2022/04/11 00:46:06;;;;;;;485.35;329.15;;;;;;;7.03;54.60;101474.31;684937;28;21517;-70
2022/04/11 00:46:28;;;;;;;484.70;326.45;;;;;;;7.01;54.55;101476.31;684380;28;67476;-70
2022/04/11 00:46:49;;;;;;;486.88;336.20;;;;;;;6.99;55.08;101479.13;685085;28;44407;-70
2022/04/11 00:47:12;;;;;;;489.45;342.30;;;;;;;6.98;55.11;101481.94;683997;28;2000;-70
2022/04/11 00:47:33;;;;;;;487.27;335.77;;;;;;;6.96;55.05;101481.22;684118;28;23404;-70
2022/04/11 00:47:55;;;;;;;486.67;334.10;;;;;;;6.95;55.04;101482.22;687627;28;23435;-70
2022/04/11 00:48:17;;;;;;;487.00;337.08;;;;;;;6.92;55.23;101471.75;686467;28;69461;-70
2022/04/11 00:48:40;;;;;;;487.75;335.92;;;;;;;6.91;55.36;101487.00;686944;28;46283;-70
2022/04/11 00:49:01;;;;;;;486.45;329.92;;;;;;;6.90;55.15;101484.47;688933;28;22401;-70
2022/04/11 00:49:23;;;;;;;486.77;332.20;;;;;;;6.89;55.42;101485.44;687322;28;44422;-70
2022/04/11 00:49:44;;;;;;;489.23;335.90;;;;;;;6.88;55.34;101481.03;684876;28;46213;-70
2022/04/11 00:50:07;;;;;;;485.52;329.20;;;;;;;6.87;55.25;101477.50;686213;28;23719;-69
2022/04/11 00:50:30;;;;;;;485.70;330.63;;;;;;;6.85;55.28;101477.66;684002;28;92379;-69
2022/04/11 00:50:54;;;;;;;486.05;335.33;;;;;;;6.88;55.47;101484.59;685591;28;45525;-70
2022/04/11 00:51:17;;;;;;;486.60;332.23;;;;;;;6.87;55.22;101480.19;684880;28;90169;-70
2022/04/11 00:51:40;;;;;;;485.83;330.92;;;;;;;6.87;55.64;101479.34;687379;28;69448;-70
2022/04/11 00:52:01;;;;;;;486.73;332.25;;;;;;;6.83;55.34;101482.31;686987;28;70154;-70
2022/04/11 00:52:22;;;;;;;486.77;335.45;;;;;;;6.85;55.54;101491.06;689285;28;23203;-70
2022/04/11 00:52:48;;;;;;;485.65;330.95;;;;;;;6.85;55.26;101492.91;688676;28;45095;-70
2022/04/11 00:53:11;;;;;;;486.65;328.50;;;;;;;6.84;55.35;101494.72;686250;28;115878;-70
2022/04/11 00:53:32;;;;;;;488.05;335.13;;;;;;;6.84;55.25;101491.22;687109;28;69439;-69
2022/04/11 00:53:56;;;;;;;487.80;332.90;;;;;;;6.82;55.60;101485.13;687277;28;21467;-70
2022/04/11 00:54:17;;;;;;;487.10;334.55;;;;;;;6.81;55.59;101489.63;685181;28;115186;-70
2022/04/11 00:54:40;;;;;;;486.85;335.88;;;;;;;6.79;55.81;101491.59;685149;28;22375;-70
2022/04/11 00:55:02;;;;;;;486.40;332.85;;;;;;;6.78;55.77;101487.22;684856;28;44398;-70
2022/04/11 00:55:24;;;;;;;484.45;325.13;;;;;;;6.76;55.91;101478.44;684869;28;46143;-70
2022/04/11 00:55:45;;;;;;;484.88;325.65;;;;;;;6.79;55.60;101488.94;685449;28;45153;-70
2022/04/11 00:56:12;;;;;;;487.83;338.33;;;;;;;6.77;55.60;101480.16;688049;28;23444;-70
2022/04/11 00:56:35;;;;;;;487.63;336.70;;;;;;;6.78;55.62;101489.91;684489;28;137360;-70
2022/04/11 00:56:56;;;;;;;487.48;339.20;;;;;;;6.78;55.88;101492.59;686238;28;89044;-70
2022/04/11 00:57:18;;;;;;;487.35;336.77;;;;;;;6.78;55.82;101483.69;689248;28;1771;-69
2022/04/11 00:57:40;;;;;;;487.25;334.33;;;;;;;6.77;55.88;101488.22;688628;28;45229;-70
2022/04/11 00:58:01;;;;;;;487.45;335.85;;;;;;;6.75;55.62;101486.63;688629;28;45073;-70
2022/04/11 00:58:23;;;;;;;488.27;337.05;;;;;;;6.77;55.90;101487.34;689299;28;23232;-69
2022/04/11 00:58:45;;;;;;;487.90;333.05;;;;;;;6.76;55.88;101491.88;688599;28;46364;-69
2022/04/11 00:59:07;;;;;;;485.33;327.17;;;;;;;6.72;55.82;101485.06;687789;28;47529;-69
2022/04/11 00:59:28;;;;;;;486.20;326.08;;;;;;;6.73;55.99;101485.94;688149;28;45289;-69
2022/04/11 00:59:49;;;;;;;486.63;324.65;;;;;;;6.73;56.18;101486.78;688873;28;23446;-69
2022/04/11 01:00:13;;;;;;;486.17;329.02;;;;;;;6.70;56.04;101478.16;686326;28;22384;-70
2022/04/11 01:00:36;;;;;;;486.45;332.38;;;;;;;6.72;55.88;101482.38;683879;28;90172;-70
2022/04/11 01:00:57;;;;;;;487.35;335.05;;;;;;;6.71;55.91;101483.38;685483;28;70160;-70
2022/04/11 01:01:18;;;;;;;489.83;337.90;;;;;;;6.68;56.26;101483.66;686723;28;44316;-70
2022/04/11 01:01:39;;;;;;;489.10;338.15;;;;;;;6.69;56.11;101490.69;685521;28;22383;-69
2022/04/11 01:02:04;;;;;;;490.00;340.55;;;;;;;6.66;56.18;101485.59;685937;28;23507;-69
2022/04/11 01:02:25;;;;;;;490.08;343.70;;;;;;;6.69;55.98;101482.63;683313;28;92478;-69
2022/04/11 01:02:46;;;;;;;488.30;339.20;;;;;;;6.68;56.24;101489.84;684097;28;15609;-70
2022/04/11 01:03:08;;;;;;;487.00;336.80;;;;;;;6.69;56.03;101490.69;685178;28;23472;-70
2022/04/11 01:03:32;;;;;;;486.95;331.98;;;;;;;6.68;56.08;101487.16;685548;28;45237;-70
2022/04/11 01:03:58;;;;;;;485.95;333.08;;;;;;;6.67;56.21;101490.00;684443;28;58588;-70
2022/04/11 01:04:26;;;;;;;485.20;330.55;;;;;;;6.65;56.33;101492.81;685554;28;21683;-70
2022/04/11 01:04:48;;;;;;;484.00;326.67;;;;;;;6.61;56.37;101490.50;683173;28;161200;-70
2022/04/11 01:05:11;;;;;;;484.55;328.70;;;;;;;6.61;56.27;101496.72;683699;28;47526;-70
2022/04/11 01:05:34;;;;;;;485.25;325.92;;;;;;;6.61;56.35;101493.19;681373;28;92651;-69
2022/04/11 01:05:55;;;;;;;484.77;325.80;;;;;;;6.57;56.54;101487.25;684692;28;69315;-70
2022/04/11 01:06:17;;;;;;;488.15;336.10;;;;;;;6.56;56.56;101488.22;686480;28;23459;-70
2022/04/11 01:06:38;;;;;;;488.25;334.60;;;;;;;6.50;56.43;101486.06;682033;28;46278;-70
2022/04/11 01:06:59;;;;;;;488.60;328.85;;;;;;;6.54;56.68;101492.88;684606;28;23391;-69
2022/04/11 01:07:23;;;;;;;487.23;330.35;;;;;;;6.53;56.34;101493.84;687589;28;1678;-70
2022/04/11 01:07:47;;;;;;;485.42;325.35;;;;;;;6.49;56.67;101485.22;687583;28;46382;-69
2022/04/11 01:08:09;;;;;;;484.67;323.05;;;;;;;6.49;56.70;101493.28;686690;28;60319;-70
2022/04/11 01:08:30;;;;;;;488.65;333.90;;;;;;;6.49;56.89;101479.03;687750;28;44381;-69
2022/04/11 01:08:52;;;;;;;487.95;331.08;;;;;;;6.46;56.90;101493.53;688086;28;22192;-69
2022/04/11 01:09:14;;;;;;;487.88;333.00;;;;;;;6.41;56.81;101477.00;687205;28;23687;-70
2022/04/11 01:09:35;;;;;;;490.27;336.48;;;;;;;6.44;56.84;101487.47;686912;28;44255;-69
2022/04/11 01:09:56;;;;;;;491.70;336.08;;;;;;;6.46;56.84;101490.03;688876;28;21510;-69
2022/04/11 01:10:17;;;;;;;487.92;334.13;;;;;;;6.44;56.96;101486.59;685998;28;23438;-69
2022/04/11 01:10:39;;;;;;;487.80;336.38;;;;;;;6.43;56.93;101488.44;682666;28;46338;-69
2022/04/11 01:11:00;;;;;;;486.58;327.92;;;;;;;6.44;56.85;101489.28;683265;28;46175;-70
2022/04/11 01:11:22;;;;;;;484.83;321.38;;;;;;;6.41;56.95;101485.06;682978;28;22402;-69
2022/04/11 01:11:43;;;;;;;485.15;320.15;;;;;;;6.41;57.07;101485.06;680252;28;22485;-69
2022/04/11 01:12:06;;;;;;;487.58;332.83;;;;;;;6.40;57.10;101486.03;679255;29;46397;-70
2022/04/11 01:12:28;;;;;;;486.63;332.30;;;;;;;6.39;57.19;101487.00;680094;28;69313;-70
2022/04/11 01:12:50;;;;;;;485.50;329.73;;;;;;;6.40;57.10;101483.34;684048;28;23520;-69
2022/04/11 01:13:11;;;;;;;486.50;325.67;;;;;;;6.38;57.06;101482.63;678570;29;46452;-69
2022/04/11 01:13:32;;;;;;;487.52;326.70;;;;;;;6.38;57.15;101482.63;680913;28;21556;-70
2022/04/11 01:13:54;;;;;;;487.45;329.50;;;;;;;6.35;57.13;101471.28;683388;28;22414;-70
2022/04/11 01:14:15;;;;;;;489.80;337.13;;;;;;;6.38;57.25;101487.13;684082;28;69030;-70
2022/04/11 01:14:37;;;;;;;489.80;334.13;;;;;;;6.37;57.20;101491.66;687017;28;45455;-70
2022/04/11 01:14:58;;;;;;;487.63;332.98;;;;;;;6.36;57.30;101481.88;688052;28;21335;-69
2022/04/11 01:15:19;;;;;;;487.75;330.33;;;;;;;6.36;57.13;101489.09;688556;28;21544;-69
2022/04/11 01:15:41;;;;;;;486.10;323.58;;;;;;;6.35;57.30;101493.63;687330;28;22392;-69
2022/04/11 01:16:04;;;;;;;485.90;329.25;;;;;;;6.29;57.24;101484.25;686996;28;44437;-70
2022/04/11 01:16:27;;;;;;;486.67;327.95;;;;;;;6.31;57.66;101479.59;687509;28;67135;-70
2022/04/11 01:16:48;;;;;;;486.65;328.38;;;;;;;6.34;57.27;101488.38;688721;28;67607;-69
2022/04/11 01:17:11;;;;;;;488.33;335.17;;;;;;;6.31;57.26;101490.31;687141;28;22398;-70
2022/04/11 01:17:33;;;;;;;488.48;334.48;;;;;;;6.30;57.38;101485.09;686738;28;69446;-70
2022/04/11 01:17:54;;;;;;;487.77;336.48;;;;;;;6.25;57.50;101481.97;686895;28;44370;-70
2022/04/11 01:18:15;;;;;;;488.80;334.92;;;;;;;6.26;57.47;101483.66;688198;28;24867;-70
2022/04/11 01:18:39;;;;;;;487.95;332.38;;;;;;;6.24;57.78;101485.63;686109;28;22442;-70
2022/04/11 01:19:00;;;;;;;487.83;335.00;;;;;;;6.21;57.80;101477.84;681079;28;91187;-70
2022/04/11 01:19:22;;;;;;;486.60;325.95;;;;;;;6.21;57.77;101485.91;680878;28;21499;-70
2022/04/11 01:19:43;;;;;;;490.02;332.85;;;;;;;6.19;57.81;101487.84;680384;28;46371;-70
2022/04/11 01:20:10;;;;;;;487.00;328.33;;;;;;;6.17;57.68;101485.28;683698;28;22925;-69
2022/04/11 01:20:31;;;;;;;486.52;328.75;;;;;;;6.16;57.73;101480.94;680837;28;138647;-69
2022/04/11 01:20:53;;;;;;;486.40;329.80;;;;;;;6.17;57.91;101484.44;686196;28;21076;-69
2022/04/11 01:21:14;;;;;;;485.48;326.08;;;;;;;6.15;57.84;101489.09;686234;28;46451;-70
2022/04/11 01:21:37;;;;;;;484.75;322.63;;;;;;;6.13;57.83;101484.72;683870;28;23445;-70
2022/04/11 01:21:58;;;;;;;487.30;332.88;;;;;;;6.12;58.02;101491.03;683569;28;67513;-70
2022/04/11 01:22:19;;;;;;;488.83;336.60;;;;;;;6.12;57.97;101484.84;685725;28;22382;-70
2022/04/11 01:22:41;;;;;;;487.10;331.75;;;;;;;6.09;58.11;101477.88;685837;28;22424;-70
2022/04/11 01:23:02;;;;;;;488.45;334.08;;;;;;;6.10;57.97;101489.50;686059;28;46342;-70
2022/04/11 01:23:26;;;;;;;488.20;333.00;;;;;;;6.10;57.97;101484.13;688344;28;1402;-70
2022/04/11 01:23:47;;;;;;;488.30;331.63;;;;;;;6.09;58.04;101482.41;686454;28;46552;-70
2022/04/11 01:24:08;;;;;;;488.60;332.25;;;;;;;6.09;58.20;101490.47;687025;28;45270;-70
2022/04/11 01:24:29;;;;;;;488.98;332.65;;;;;;;6.08;57.86;101486.94;684444;28;23424;-70
2022/04/11 01:24:51;;;;;;;487.23;329.55;;;;;;;6.04;58.01;101485.47;681850;28;44194;-70
2022/04/11 01:25:14;;;;;;;484.38;320.80;;;;;;;6.07;58.01;101492.44;679728;29;23445;-69
2022/04/11 01:25:37;;;;;;;485.45;324.83;;;;;;;6.04;58.24;101484.63;677895;28;115142;-69
2022/04/11 01:25:59;;;;;;;487.42;329.25;;;;;;;6.02;58.31;101489.25;681581;28;47029;-70
2022/04/11 01:26:22;;;;;;;487.20;328.63;;;;;;;6.02;58.24;101487.44;680196;29;20350;-70
2022/04/11 01:26:45;;;;;;;486.42;324.60;;;;;;;5.98;58.61;101486.00;678797;29;22400;-70
2022/04/11 01:27:06;;;;;;;488.60;334.67;;;;;;;5.99;58.58;101490.38;680679;28;62805;-70
2022/04/11 01:27:28;;;;;;;486.70;329.58;;;;;;;5.99;58.61;101484.16;683876;28;21519;-69
2022/04/11 01:27:49;;;;;;;487.98;334.45;;;;;;;6.02;58.30;101491.94;682032;28;44179;-70
2022/04/11 01:28:10;;;;;;;487.52;331.27;;;;;;;6.00;58.44;101494.75;680086;28;22523;-70
2022/04/11 01:28:32;;;;;;;488.85;335.83;;;;;;;5.95;58.55;101481.69;681607;28;21452;-69
2022/04/11 01:28:55;;;;;;;488.27;332.70;;;;;;;6.01;58.39;101490.25;682689;28;44390;-69
2022/04/11 01:29:17;;;;;;;486.80;327.50;;;;;;;5.97;58.37;101484.28;682124;28;69270;-70
2022/04/11 01:29:41;;;;;;;491.10;335.42;;;;;;;5.99;58.54;101492.19;681674;28;90439;-70
2022/04/11 01:30:03;;;;;;;487.42;326.27;;;;;;;5.98;58.47;101495.88;683600;28;44067;-69
2022/04/11 01:30:29;;;;;;;487.23;333.05;;;;;;;5.97;58.62;101486.97;681226;28;135977;-69
2022/04/11 01:30:52;;;;;;;487.58;332.38;;;;;;;5.96;58.56;101493.28;684421;28;23743;-69
2022/04/11 01:31:14;;;;;;;487.75;327.50;;;;;;;5.97;58.49;101491.50;680094;28;92270;-69
2022/04/11 01:31:35;;;;;;;486.75;325.50;;;;;;;5.91;58.70;101484.78;680915;28;46334;-70
2022/04/11 01:31:57;;;;;;;487.17;329.13;;;;;;;5.91;58.69;101484.78;681947;28;22370;-70
2022/04/11 01:32:19;;;;;;;486.52;324.35;;;;;;;5.88;58.84;101480.53;682758;28;21533;-69
2022/04/11 01:32:40;;;;;;;486.95;322.85;;;;;;;5.90;58.56;101491.13;682613;28;47297;-69
2022/04/11 01:33:14;;;;;;;487.27;328.20;;;;;;;5.90;58.48;101499.16;681812;28;23436;-69
2022/04/11 01:33:36;;;;;;;485.90;325.60;;;;;;;5.89;58.77;101490.28;678776;28;137724;-69
2022/04/11 01:34:00;;;;;;;489.95;336.27;;;;;;;5.87;58.62;101491.38;680359;28;114822;-69
2022/04/11 01:34:21;;;;;;;489.63;330.90;;;;;;;5.86;58.52;101490.53;683826;28;21306;-69
2022/04/11 01:34:42;;;;;;;488.27;326.70;;;;;;;5.86;58.82;101485.19;683351;28;23823;-69
2022/04/11 01:35:05;;;;;;;488.33;329.38;;;;;;;5.83;58.88;101485.44;683146;28;22420;-69
2022/04/11 01:35:27;;;;;;;489.35;335.92;;;;;;;5.83;58.95;101479.19;678292;29;90680;-69
2022/04/11 01:35:54;;;;;;;487.17;329.38;;;;;;;5.80;58.90;101493.72;678977;28;138329;-69
2022/04/11 01:36:15;;;;;;;487.38;329.83;;;;;;;5.81;58.87;101489.22;684034;28;47460;-69
2022/04/11 01:36:39;;;;;;;486.38;324.55;;;;;;;5.81;58.94;101492.72;683612;28;22171;-69
2022/04/11 01:37:04;;;;;;;487.90;332.08;;;;;;;5.81;59.01;101486.53;679838;28;136147;-69
2022/04/11 01:37:26;;;;;;;484.50;325.33;;;;;;;5.81;58.90;101486.53;684744;28;47299;-69
2022/04/11 01:37:47;;;;;;;484.63;323.52;;;;;;;5.80;58.94;101491.03;682175;28;46123;-69
2022/04/11 01:38:10;;;;;;;484.50;320.92;;;;;;;5.78;59.00;101487.63;680485;28;46899;-70
2022/04/11 01:38:31;;;;;;;484.30;319.80;;;;;;;5.76;58.77;101481.53;683101;28;45330;-69
2022/04/11 01:38:52;;;;;;;487.17;328.42;;;;;;;5.76;58.89;101484.22;683302;28;23521;-69
2022/04/11 01:39:13;;;;;;;487.60;329.83;;;;;;;5.74;58.91;101484.34;683933;28;22237;-69
2022/04/11 01:39:37;;;;;;;486.15;320.27;;;;;;;5.71;58.86;101492.66;683802;28;23531;-68
2022/04/11 01:39:58;;;;;;;487.27;326.20;;;;;;;5.71;59.04;101487.28;683735;28;115127;-69